sensor_id;sensor_type;location;lat;lon;timestamp;pressure;altitude;pressure_sealevel;temperature;humidity
12803;BME280;6465;42.700;23.278;2024-01-16T00:01:22;93499.91;;;4.22;73.75
12803;BME280;6465;42.700;23.278;2024-01-16T00:03:49;93502.72;;;4.18;74.84
12803;BME280;6465;42.700;23.278;2024-01-16T00:06:16;93504.69;;;4.13;74.10
12803;BME280;6465;42.700;23.278;2024-01-16T00:08:43;93507.81;;;4.36;72.59
12803;BME280;6465;42.700;23.278;2024-01-16T00:11:10;93509.94;;;4.28;72.46
12803;BME280;6465;42.700;23.278;2024-01-16T00:13:38;93508.19;;;4.29;73.00
12803;BME280;6465;42.700;23.278;2024-01-16T00:16:06;93513.97;;;4.34;72.97
12803;BME280;6465;42.700;23.278;2024-01-16T00:18:32;93507.03;;;4.34;72.67
12803;BME280;6465;42.700;23.278;2024-01-16T00:21:00;93520.91;;;4.33;73.01
12803;BME280;6465;42.700;23.278;2024-01-16T00:23:28;93515.28;;;4.25;73.85
12803;BME280;6465;42.700;23.278;2024-01-16T00:25:57;93520.63;;;4.22;73.72
12803;BME280;6465;42.700;23.278;2024-01-16T00:28:24;93520.13;;;4.31;73.47
12803;BME280;6465;42.700;23.278;2024-01-16T00:30:52;93518.16;;;4.36;73.74
12803;BME280;6465;42.700;23.278;2024-01-16T00:33:19;93526.34;;;4.45;73.39
12803;BME280;6465;42.700;23.278;2024-01-16T00:35:46;93531.41;;;4.48;73.64
12803;BME280;6465;42.700;23.278;2024-01-16T00:38:13;93531.78;;;4.40;74.08
12803;BME280;6465;42.700;23.278;2024-01-16T00:40:40;93511.66;;;4.45;73.92
12803;BME280;6465;42.700;23.278;2024-01-16T00:43:07;93515.91;;;4.46;74.47
12803;BME280;6465;42.700;23.278;2024-01-16T00:45:34;93511.69;;;4.61;74.42
12803;BME280;6465;42.700;23.278;2024-01-16T00:48:03;93529.56;;;4.50;74.83
12803;BME280;6465;42.700;23.278;2024-01-16T00:50:31;93514.25;;;4.45;75.81
12803;BME280;6465;42.700;23.278;2024-01-16T00:52:58;93524.31;;;4.51;75.65
12803;BME280;6465;42.700;23.278;2024-01-16T00:55:25;93525.44;;;4.46;76.46
12803;BME280;6465;42.700;23.278;2024-01-16T00:57:52;93516.00;;;4.45;76.57
12803;BME280;6465;42.700;23.278;2024-01-16T01:00:19;93535.78;;;4.63;76.48
12803;BME280;6465;42.700;23.278;2024-01-16T01:02:46;93537.47;;;4.64;76.34
12803;BME280;6465;42.700;23.278;2024-01-16T01:05:15;93559.97;;;4.63;76.58
12803;BME280;6465;42.700;23.278;2024-01-16T01:07:42;93550.19;;;4.68;76.76
12803;BME280;6465;42.700;23.278;2024-01-16T01:10:09;93546.31;;;4.60;76.48
12803;BME280;6465;42.700;23.278;2024-01-16T01:12:36;93554.84;;;4.62;76.66
12803;BME280;6465;42.700;23.278;2024-01-16T01:15:04;93553.03;;;4.64;76.03
12803;BME280;6465;42.700;23.278;2024-01-16T01:17:31;93534.81;;;4.48;76.98
12803;BME280;6465;42.700;23.278;2024-01-16T01:19:58;93541.19;;;4.58;77.03
12803;BME280;6465;42.700;23.278;2024-01-16T01:22:26;93539.69;;;4.54;77.37
12803;BME280;6465;42.700;23.278;2024-01-16T01:24:53;93534.09;;;4.62;76.48
12803;BME280;6465;42.700;23.278;2024-01-16T01:27:20;93520.63;;;4.55;77.09
12803;BME280;6465;42.700;23.278;2024-01-16T01:29:47;93529.50;;;4.67;76.92
12803;BME280;6465;42.700;23.278;2024-01-16T01:32:14;93519.84;;;4.37;77.21
12803;BME280;6465;42.700;23.278;2024-01-16T01:34:41;93533.16;;;4.47;77.35
12803;BME280;6465;42.700;23.278;2024-01-16T01:37:08;93529.38;;;4.37;78.54
12803;BME280;6465;42.700;23.278;2024-01-16T01:39:37;93541.09;;;4.44;78.15
12803;BME280;6465;42.700;23.278;2024-01-16T01:42:04;93525.41;;;4.30;78.94
12803;BME280;6465;42.700;23.278;2024-01-16T01:44:31;93526.25;;;4.30;79.07
12803;BME280;6465;42.700;23.278;2024-01-16T01:46:58;93547.28;;;4.24;80.14
12803;BME280;6465;42.700;23.278;2024-01-16T01:49:25;93514.34;;;4.26;79.93
12803;BME280;6465;42.700;23.278;2024-01-16T01:51:54;93545.13;;;4.32;80.96
12803;BME280;6465;42.700;23.278;2024-01-16T01:54:21;93525.03;;;4.37;80.73
12803;BME280;6465;42.700;23.278;2024-01-16T01:56:50;93546.75;;;4.35;84.95
12803;BME280;6465;42.700;23.278;2024-01-16T01:59:18;93540.72;;;4.34;83.36
12803;BME280;6465;42.700;23.278;2024-01-16T02:01:45;93517.34;;;4.52;81.98
12803;BME280;6465;42.700;23.278;2024-01-16T02:04:14;93549.47;;;4.49;82.36
12803;BME280;6465;42.700;23.278;2024-01-16T02:06:41;93540.06;;;4.47;82.35
12803;BME280;6465;42.700;23.278;2024-01-16T02:09:09;93532.56;;;4.42;83.15
12803;BME280;6465;42.700;23.278;2024-01-16T02:11:38;93533.91;;;4.49;85.58
12803;BME280;6465;42.700;23.278;2024-01-16T02:14:07;93539.63;;;4.56;85.34
12803;BME280;6465;42.700;23.278;2024-01-16T02:16:36;93527.25;;;4.61;84.04
12803;BME280;6465;42.700;23.278;2024-01-16T02:19:04;93539.75;;;4.53;84.09
12803;BME280;6465;42.700;23.278;2024-01-16T02:21:35;93529.06;;;4.43;84.53
12803;BME280;6465;42.700;23.278;2024-01-16T02:24:05;93554.16;;;4.58;83.46
12803;BME280;6465;42.700;23.278;2024-01-16T02:26:33;93571.31;;;4.61;83.23
12803;BME280;6465;42.700;23.278;2024-01-16T02:29:00;93574.16;;;4.56;82.87
12803;BME280;6465;42.700;23.278;2024-01-16T02:31:27;93584.91;;;4.49;82.88
12803;BME280;6465;42.700;23.278;2024-01-16T02:33:54;93564.44;;;4.60;81.92
12803;BME280;6465;42.700;23.278;2024-01-16T02:36:21;93580.31;;;4.54;82.98
12803;BME280;6465;42.700;23.278;2024-01-16T02:38:48;93597.59;;;4.70;81.79
12803;BME280;6465;42.700;23.278;2024-01-16T02:41:17;93572.75;;;4.66;81.82
12803;BME280;6465;42.700;23.278;2024-01-16T02:43:44;93592.69;;;4.82;82.45
12803;BME280;6465;42.700;23.278;2024-01-16T02:46:11;93606.22;;;4.71;84.04
12803;BME280;6465;42.700;23.278;2024-01-16T02:48:38;93623.59;;;4.69;85.08
12803;BME280;6465;42.700;23.278;2024-01-16T02:51:05;93636.56;;;4.52;90.15
12803;BME280;6465;42.700;23.278;2024-01-16T02:53:32;93641.59;;;4.55;93.22
12803;BME280;6465;42.700;23.278;2024-01-16T02:56:00;93660.22;;;4.63;93.55
12803;BME280;6465;42.700;23.278;2024-01-16T02:58:29;93659.19;;;4.65;95.29
12803;BME280;6465;42.700;23.278;2024-01-16T03:00:56;93654.25;;;4.78;95.99
12803;BME280;6465;42.700;23.278;2024-01-16T03:03:23;93659.25;;;4.98;97.02
12803;BME280;6465;42.700;23.278;2024-01-16T03:05:50;93663.03;;;5.08;99.91
12803;BME280;6465;42.700;23.278;2024-01-16T03:08:17;93669.44;;;5.34;100.00
12803;BME280;6465;42.700;23.278;2024-01-16T03:10:44;93704.47;;;5.43;100.00
12803;BME280;6465;42.700;23.278;2024-01-16T03:13:11;93683.69;;;5.43;100.00
12803;BME280;6465;42.700;23.278;2024-01-16T03:15:40;93714.94;;;5.41;100.00
12803;BME280;6465;42.700;23.278;2024-01-16T03:18:07;93710.31;;;5.46;100.00
12803;BME280;6465;42.700;23.278;2024-01-16T03:20:34;93709.06;;;5.38;100.00
12803;BME280;6465;42.700;23.278;2024-01-16T03:23:01;93735.63;;;5.43;100.00
12803;BME280;6465;42.700;23.278;2024-01-16T03:25:29;93727.25;;;5.38;100.00
12803;BME280;6465;42.700;23.278;2024-01-16T03:27:56;93740.53;;;5.32;100.00
12803;BME280;6465;42.700;23.278;2024-01-16T03:30:23;93756.81;;;5.18;100.00
12803;BME280;6465;42.700;23.278;2024-01-16T03:32:52;93759.63;;;5.13;100.00
12803;BME280;6465;42.700;23.278;2024-01-16T03:35:18;93775.50;;;5.07;100.00
12803;BME280;6465;42.700;23.278;2024-01-16T03:37:45;93768.81;;;5.03;100.00
12803;BME280;6465;42.700;23.278;2024-01-16T03:40:12;93792.63;;;5.11;100.00
12803;BME280;6465;42.700;23.278;2024-01-16T03:42:39;93787.69;;;5.05;99.14
12803;BME280;6465;42.700;23.278;2024-01-16T03:45:07;93794.75;;;5.03;97.91
12803;BME280;6465;42.700;23.278;2024-01-16T03:47:34;93788.94;;;4.98;97.34
12803;BME280;6465;42.700;23.278;2024-01-16T03:50:03;93813.94;;;4.99;96.40
12803;BME280;6465;42.700;23.278;2024-01-16T03:52:30;93801.59;;;4.87;96.30
12803;BME280;6465;42.700;23.278;2024-01-16T03:54:57;93807.97;;;4.80;95.73
12803;BME280;6465;42.700;23.278;2024-01-16T03:57:23;93819.94;;;4.65;96.27
12803;BME280;6465;42.700;23.278;2024-01-16T03:59:51;93822.94;;;4.75;95.60
12803;BME280;6465;42.700;23.278;2024-01-16T04:02:18;93834.28;;;4.72;94.85
12803;BME280;6465;42.700;23.278;2024-01-16T04:04:44;93844.09;;;4.66;94.50
12803;BME280;6465;42.700;23.278;2024-01-16T04:07:13;93851.88;;;4.66;92.47
12803;BME280;6465;42.700;23.278;2024-01-16T04:09:42;93869.03;;;4.51;92.79
12803;BME280;6465;42.700;23.278;2024-01-16T04:12:09;93871.31;;;4.38;93.39
12803;BME280;6465;42.700;23.278;2024-01-16T04:14:36;93883.59;;;4.35;93.11
12803;BME280;6465;42.700;23.278;2024-01-16T04:17:03;93863.81;;;4.32;93.24
12803;BME280;6465;42.700;23.278;2024-01-16T04:19:30;93865.22;;;4.21;92.45
12803;BME280;6465;42.700;23.278;2024-01-16T04:21:59;93852.91;;;4.07;92.03
12803;BME280;6465;42.700;23.278;2024-01-16T04:24:28;93875.53;;;4.22;91.87
12803;BME280;6465;42.700;23.278;2024-01-16T04:26:55;93864.28;;;4.23;91.16
12803;BME280;6465;42.700;23.278;2024-01-16T04:29:22;93890.19;;;4.23;90.96
12803;BME280;6465;42.700;23.278;2024-01-16T04:31:49;93890.84;;;4.08;91.01
12803;BME280;6465;42.700;23.278;2024-01-16T04:34:16;93882.31;;;4.06;90.44
12803;BME280;6465;42.700;23.278;2024-01-16T04:36:42;93885.31;;;3.97;90.74
12803;BME280;6465;42.700;23.278;2024-01-16T04:39:10;93860.59;;;3.90;89.28
12803;BME280;6465;42.700;23.278;2024-01-16T04:41:38;93894.22;;;4.10;88.88
12803;BME280;6465;42.700;23.278;2024-01-16T04:44:05;93915.00;;;4.09;88.42
12803;BME280;6465;42.700;23.278;2024-01-16T04:46:32;93929.78;;;4.07;88.00
12803;BME280;6465;42.700;23.278;2024-01-16T04:48:59;93944.63;;;4.03;87.88
12803;BME280;6465;42.700;23.278;2024-01-16T04:51:26;93944.78;;;3.98;87.56
12803;BME280;6465;42.700;23.278;2024-01-16T04:53:53;93955.56;;;3.89;87.04
12803;BME280;6465;42.700;23.278;2024-01-16T04:56:20;93960.03;;;3.86;87.12
12803;BME280;6465;42.700;23.278;2024-01-16T04:58:48;93969.47;;;3.67;87.90
12803;BME280;6465;42.700;23.278;2024-01-16T05:01:16;93985.75;;;3.70;88.05
12803;BME280;6465;42.700;23.278;2024-01-16T05:03:43;93992.72;;;3.68;87.66
12803;BME280;6465;42.700;23.278;2024-01-16T05:06:13;94005.56;;;3.49;88.62
12803;BME280;6465;42.700;23.278;2024-01-16T05:08:41;93989.84;;;3.54;87.77
12803;BME280;6465;42.700;23.278;2024-01-16T05:11:08;94005.38;;;3.54;87.60
12803;BME280;6465;42.700;23.278;2024-01-16T05:13:35;94004.88;;;3.66;87.11
12803;BME280;6465;42.700;23.278;2024-01-16T05:16:04;94017.63;;;3.71;86.67
12803;BME280;6465;42.700;23.278;2024-01-16T05:18:31;94012.31;;;3.74;86.60
12803;BME280;6465;42.700;23.278;2024-01-16T05:20:59;94036.22;;;3.80;86.28
12803;BME280;6465;42.700;23.278;2024-01-16T05:23:27;94046.47;;;3.83;84.84
12803;BME280;6465;42.700;23.278;2024-01-16T05:25:54;94044.88;;;3.79;84.45
12803;BME280;6465;42.700;23.278;2024-01-16T05:28:22;94055.50;;;3.73;84.52
12803;BME280;6465;42.700;23.278;2024-01-16T05:30:49;94063.56;;;3.66;84.59
12803;BME280;6465;42.700;23.278;2024-01-16T05:33:17;94061.31;;;3.78;83.99
12803;BME280;6465;42.700;23.278;2024-01-16T05:35:44;94068.22;;;3.78;82.72
12803;BME280;6465;42.700;23.278;2024-01-16T05:38:11;94074.50;;;3.72;83.12
12803;BME280;6465;42.700;23.278;2024-01-16T05:40:38;94096.06;;;3.73;82.61
12803;BME280;6465;42.700;23.278;2024-01-16T05:43:05;94104.88;;;3.69;82.35
12803;BME280;6465;42.700;23.278;2024-01-16T05:45:32;94119.41;;;3.71;81.25
12803;BME280;6465;42.700;23.278;2024-01-16T05:47:59;94121.69;;;3.57;80.60
12803;BME280;6465;42.700;23.278;2024-01-16T05:50:27;94125.03;;;3.61;80.52
12803;BME280;6465;42.700;23.278;2024-01-16T05:52:55;94126.16;;;3.53;81.05
12803;BME280;6465;42.700;23.278;2024-01-16T05:55:22;94135.69;;;3.53;80.94
12803;BME280;6465;42.700;23.278;2024-01-16T05:57:49;94141.94;;;3.47;81.13
12803;BME280;6465;42.700;23.278;2024-01-16T06:00:17;94142.16;;;3.41;81.82
12803;BME280;6465;42.700;23.278;2024-01-16T06:02:44;94151.38;;;3.48;81.90
12803;BME280;6465;42.700;23.278;2024-01-16T06:05:12;94150.72;;;3.43;81.75
12803;BME280;6465;42.700;23.278;2024-01-16T06:07:40;94161.97;;;3.42;82.42
12803;BME280;6465;42.700;23.278;2024-01-16T06:10:08;94167.81;;;3.47;80.40
12803;BME280;6465;42.700;23.278;2024-01-16T06:12:35;94178.22;;;3.46;80.81
12803;BME280;6465;42.700;23.278;2024-01-16T06:15:03;94174.13;;;3.40;80.77
12803;BME280;6465;42.700;23.278;2024-01-16T06:17:30;94185.50;;;3.36;80.70
12803;BME280;6465;42.700;23.278;2024-01-16T06:19:57;94203.66;;;3.35;81.12
12803;BME280;6465;42.700;23.278;2024-01-16T06:22:24;94209.31;;;3.44;79.85
12803;BME280;6465;42.700;23.278;2024-01-16T06:24:53;94216.84;;;3.50;78.51
12803;BME280;6465;42.700;23.278;2024-01-16T06:27:19;94231.47;;;3.51;78.17
12803;BME280;6465;42.700;23.278;2024-01-16T06:29:47;94230.47;;;3.32;78.55
12803;BME280;6465;42.700;23.278;2024-01-16T06:32:14;94227.44;;;3.21;78.57
12803;BME280;6465;42.700;23.278;2024-01-16T06:34:42;94249.41;;;3.09;78.60
12803;BME280;6465;42.700;23.278;2024-01-16T06:37:09;94256.25;;;3.10;78.43
12803;BME280;6465;42.700;23.278;2024-01-16T06:39:36;94272.53;;;3.14;78.84
12803;BME280;6465;42.700;23.278;2024-01-16T06:42:06;94256.88;;;3.17;78.10
12803;BME280;6465;42.700;23.278;2024-01-16T06:44:33;94262.81;;;3.21;77.82
12803;BME280;6465;42.700;23.278;2024-01-16T06:47:00;94281.19;;;3.13;78.12
12803;BME280;6465;42.700;23.278;2024-01-16T06:49:27;94280.31;;;3.12;78.81
12803;BME280;6465;42.700;23.278;2024-01-16T06:51:54;94278.38;;;3.19;78.26
12803;BME280;6465;42.700;23.278;2024-01-16T06:54:21;94292.47;;;3.35;77.71
12803;BME280;6465;42.700;23.278;2024-01-16T06:56:49;94288.00;;;3.39;77.43
12803;BME280;6465;42.700;23.278;2024-01-16T06:59:17;94295.78;;;3.39;77.21
12803;BME280;6465;42.700;23.278;2024-01-16T07:01:47;94309.94;;;3.29;77.37
12803;BME280;6465;42.700;23.278;2024-01-16T07:04:14;94307.03;;;3.38;77.35
12803;BME280;6465;42.700;23.278;2024-01-16T07:06:41;94311.25;;;3.40;77.03
12803;BME280;6465;42.700;23.278;2024-01-16T07:09:09;94322.25;;;3.47;76.71
12803;BME280;6465;42.700;23.278;2024-01-16T07:11:37;94334.97;;;3.53;76.83
12803;BME280;6465;42.700;23.278;2024-01-16T07:14:08;94344.50;;;3.51;76.89
12803;BME280;6465;42.700;23.278;2024-01-16T07:16:37;94357.41;;;3.52;76.54
12803;BME280;6465;42.700;23.278;2024-01-16T07:19:04;94356.56;;;3.52;76.22
12803;BME280;6465;42.700;23.278;2024-01-16T07:21:31;94376.16;;;3.59;75.72
12803;BME280;6465;42.700;23.278;2024-01-16T07:23:59;94371.03;;;3.57;75.63
12803;BME280;6465;42.700;23.278;2024-01-16T07:26:26;94374.78;;;3.49;75.65
12803;BME280;6465;42.700;23.278;2024-01-16T07:28:53;94391.84;;;3.54;75.31
12803;BME280;6465;42.700;23.278;2024-01-16T07:31:20;94380.00;;;3.47;75.50
12803;BME280;6465;42.700;23.278;2024-01-16T07:33:48;94395.34;;;3.53;75.31
12803;BME280;6465;42.700;23.278;2024-01-16T07:36:15;94405.22;;;3.42;75.68
12803;BME280;6465;42.700;23.278;2024-01-16T07:38:42;94423.53;;;3.36;76.18
12803;BME280;6465;42.700;23.278;2024-01-16T07:41:09;94414.75;;;3.40;76.06
12803;BME280;6465;42.700;23.278;2024-01-16T07:43:36;94406.09;;;3.41;76.21
12803;BME280;6465;42.700;23.278;2024-01-16T07:46:03;94410.28;;;3.45;76.05
12803;BME280;6465;42.700;23.278;2024-01-16T07:48:30;94411.59;;;3.57;75.43
12803;BME280;6465;42.700;23.278;2024-01-16T07:50:58;94428.16;;;3.51;75.66
12803;BME280;6465;42.700;23.278;2024-01-16T07:53:25;94429.88;;;3.52;75.11
12803;BME280;6465;42.700;23.278;2024-01-16T07:55:53;94437.03;;;3.44;75.30
12803;BME280;6465;42.700;23.278;2024-01-16T07:58:21;94441.38;;;3.44;75.67
12803;BME280;6465;42.700;23.278;2024-01-16T08:00:48;94447.38;;;3.44;75.18
12803;BME280;6465;42.700;23.278;2024-01-16T08:03:15;94452.34;;;3.50;75.64
12803;BME280;6465;42.700;23.278;2024-01-16T08:05:42;94455.59;;;3.57;74.72
12803;BME280;6465;42.700;23.278;2024-01-16T08:08:11;94456.94;;;3.69;74.63
12803;BME280;6465;42.700;23.278;2024-01-16T08:10:38;94432.47;;;3.26;74.30
12803;BME280;6465;42.700;23.278;2024-01-16T08:13:05;94471.31;;;3.51;75.12
12803;BME280;6465;42.700;23.278;2024-01-16T08:15:31;94472.94;;;3.55;75.35
12803;BME280;6465;42.700;23.278;2024-01-16T08:18:00;94485.63;;;3.63;74.71
12803;BME280;6465;42.700;23.278;2024-01-16T08:20:27;94509.22;;;3.53;74.29
12803;BME280;6465;42.700;23.278;2024-01-16T08:22:54;94502.06;;;3.62;73.27
12803;BME280;6465;42.700;23.278;2024-01-16T08:25:23;94499.59;;;3.57;73.31
12803;BME280;6465;42.700;23.278;2024-01-16T08:27:49;94515.69;;;3.67;72.39
12803;BME280;6465;42.700;23.278;2024-01-16T08:30:17;94510.50;;;3.67;71.68
12803;BME280;6465;42.700;23.278;2024-01-16T08:32:44;94524.34;;;3.66;71.25
12803;BME280;6465;42.700;23.278;2024-01-16T08:35:11;94522.97;;;3.55;71.13
12803;BME280;6465;42.700;23.278;2024-01-16T08:37:37;94525.63;;;3.52;71.64
12803;BME280;6465;42.700;23.278;2024-01-16T08:40:05;94537.06;;;3.45;71.55
12803;BME280;6465;42.700;23.278;2024-01-16T08:42:34;94541.72;;;3.62;71.37
12803;BME280;6465;42.700;23.278;2024-01-16T08:45:01;94546.94;;;3.61;71.11
12803;BME280;6465;42.700;23.278;2024-01-16T08:47:28;94549.13;;;3.46;72.20
12803;BME280;6465;42.700;23.278;2024-01-16T08:49:55;94549.94;;;3.48;72.06
12803;BME280;6465;42.700;23.278;2024-01-16T08:52:22;94552.56;;;3.47;71.72
12803;BME280;6465;42.700;23.278;2024-01-16T08:54:49;94559.59;;;3.43;71.85
12803;BME280;6465;42.700;23.278;2024-01-16T08:57:16;94565.84;;;3.36;71.93
12803;BME280;6465;42.700;23.278;2024-01-16T08:59:44;94564.78;;;3.43;71.86
12803;BME280;6465;42.700;23.278;2024-01-16T09:02:11;94565.31;;;3.53;71.22
12803;BME280;6465;42.700;23.278;2024-01-16T09:04:38;94562.56;;;3.57;71.12
12803;BME280;6465;42.700;23.278;2024-01-16T09:07:07;94564.56;;;3.49;71.53
12803;BME280;6465;42.700;23.278;2024-01-16T09:09:34;94560.50;;;3.69;70.11
12803;BME280;6465;42.700;23.278;2024-01-16T09:12:01;94564.19;;;3.62;70.65
12803;BME280;6465;42.700;23.278;2024-01-16T09:14:29;94574.94;;;3.76;70.36
12803;BME280;6465;42.700;23.278;2024-01-16T09:16:57;94576.72;;;3.74;70.23
12803;BME280;6465;42.700;23.278;2024-01-16T09:19:24;94575.44;;;3.87;70.02
12803;BME280;6465;42.700;23.278;2024-01-16T09:21:51;94583.47;;;3.78;70.52
12803;BME280;6465;42.700;23.278;2024-01-16T09:24:18;94586.13;;;4.03;70.41
12803;BME280;6465;42.700;23.278;2024-01-16T09:26:45;94593.03;;;4.04;70.03
12803;BME280;6465;42.700;23.278;2024-01-16T09:29:13;94588.78;;;4.01;69.76
12803;BME280;6465;42.700;23.278;2024-01-16T09:31:42;94584.88;;;4.14;68.86
12803;BME280;6465;42.700;23.278;2024-01-16T09:34:10;94588.34;;;4.13;68.43
12803;BME280;6465;42.700;23.278;2024-01-16T09:36:38;94576.50;;;4.06;69.48
12803;BME280;6465;42.700;23.278;2024-01-16T09:39:06;94578.41;;;4.26;69.17
12803;BME280;6465;42.700;23.278;2024-01-16T09:41:34;94572.50;;;4.22;68.35
12803;BME280;6465;42.700;23.278;2024-01-16T09:44:01;94585.13;;;4.31;67.94
12803;BME280;6465;42.700;23.278;2024-01-16T09:46:29;94591.38;;;4.26;67.73
12803;BME280;6465;42.700;23.278;2024-01-16T09:48:59;94600.91;;;4.25;66.77
12803;BME280;6465;42.700;23.278;2024-01-16T09:51:29;94615.69;;;4.23;66.84
12803;BME280;6465;42.700;23.278;2024-01-16T09:53:56;94598.22;;;4.28;66.33
12803;BME280;6465;42.700;23.278;2024-01-16T09:56:23;94601.91;;;4.21;66.72
12803;BME280;6465;42.700;23.278;2024-01-16T09:58:54;94596.72;;;4.21;66.97
12803;BME280;6465;42.700;23.278;2024-01-16T10:01:24;94598.00;;;4.34;66.38
12803;BME280;6465;42.700;23.278;2024-01-16T10:03:53;94594.19;;;4.20;65.77
12803;BME280;6465;42.700;23.278;2024-01-16T10:06:21;94582.25;;;4.16;66.30
12803;BME280;6465;42.700;23.278;2024-01-16T10:08:51;94589.63;;;4.26;66.12
12803;BME280;6465;42.700;23.278;2024-01-16T10:11:18;94584.63;;;4.22;65.82
12803;BME280;6465;42.700;23.278;2024-01-16T10:13:45;94574.94;;;4.27;65.38
12803;BME280;6465;42.700;23.278;2024-01-16T10:16:12;94586.56;;;4.15;65.47
12803;BME280;6465;42.700;23.278;2024-01-16T10:18:39;94598.00;;;4.34;65.58
12803;BME280;6465;42.700;23.278;2024-01-16T10:21:19;94583.00;;;4.44;65.22
12803;BME280;6465;42.700;23.278;2024-01-16T10:23:47;94604.75;;;4.38;65.39
12803;BME280;6465;42.700;23.278;2024-01-16T10:26:16;94598.84;;;4.35;65.31
12803;BME280;6465;42.700;23.278;2024-01-16T10:28:44;94603.41;;;4.28;65.80
12803;BME280;6465;42.700;23.278;2024-01-16T10:31:12;94605.81;;;4.33;66.17
12803;BME280;6465;42.700;23.278;2024-01-16T10:33:40;94601.91;;;4.46;65.20
12803;BME280;6465;42.700;23.278;2024-01-16T10:36:09;94599.28;;;4.48;65.16
12803;BME280;6465;42.700;23.278;2024-01-16T10:38:36;94584.41;;;4.53;64.51
12803;BME280;6465;42.700;23.278;2024-01-16T10:41:06;94605.50;;;4.67;64.88
12803;BME280;6465;42.700;23.278;2024-01-16T10:43:34;94585.56;;;4.69;64.65
12803;BME280;6465;42.700;23.278;2024-01-16T10:46:11;94608.00;;;4.93;64.81
12803;BME280;6465;42.700;23.278;2024-01-16T10:48:39;94596.28;;;4.83;64.01
12803;BME280;6465;42.700;23.278;2024-01-16T10:51:07;94597.78;;;4.65;65.04
12803;BME280;6465;42.700;23.278;2024-01-16T10:53:35;94588.25;;;4.66;65.38
12803;BME280;6465;42.700;23.278;2024-01-16T10:56:07;94576.59;;;4.77;65.39
12803;BME280;6465;42.700;23.278;2024-01-16T10:58:40;94578.59;;;4.71;64.81
12803;BME280;6465;42.700;23.278;2024-01-16T11:01:10;94605.00;;;4.57;64.32
12803;BME280;6465;42.700;23.278;2024-01-16T11:03:40;94607.19;;;4.68;64.49
12803;BME280;6465;42.700;23.278;2024-01-16T11:06:10;94606.72;;;4.82;64.35
12803;BME280;6465;42.700;23.278;2024-01-16T11:08:39;94600.50;;;4.86;64.33
12803;BME280;6465;42.700;23.278;2024-01-16T11:11:06;94609.84;;;4.91;63.73
12803;BME280;6465;42.700;23.278;2024-01-16T11:13:35;94622.41;;;5.02;63.85
12803;BME280;6465;42.700;23.278;2024-01-16T11:16:04;94623.78;;;4.87;63.53
12803;BME280;6465;42.700;23.278;2024-01-16T11:18:33;94522.66;;;4.39;63.65
12803;BME280;6465;42.700;23.278;2024-01-16T11:21:04;94612.97;;;4.99;63.79
12803;BME280;6465;42.700;23.278;2024-01-16T11:23:31;94614.66;;;5.00;63.79
12803;BME280;6465;42.700;23.278;2024-01-16T11:26:00;94622.63;;;4.96;63.13
12803;BME280;6465;42.700;23.278;2024-01-16T11:28:47;94617.09;;;4.82;64.20
12803;BME280;6465;42.700;23.278;2024-01-16T11:31:29;94629.00;;;4.87;63.25
12803;BME280;6465;42.700;23.278;2024-01-16T11:33:57;94620.84;;;4.73;63.88
12803;BME280;6465;42.700;23.278;2024-01-16T11:36:46;94622.31;;;4.80;64.53
12803;BME280;6465;42.700;23.278;2024-01-16T11:39:17;94622.09;;;4.86;64.30
12803;BME280;6465;42.700;23.278;2024-01-16T11:41:51;94633.84;;;4.71;64.87
12803;BME280;6465;42.700;23.278;2024-01-16T11:47:32;94642.03;;;4.61;65.63
12803;BME280;6465;42.700;23.278;2024-01-16T11:50:09;94634.88;;;4.67;65.88
12803;BME280;6465;42.700;23.278;2024-01-16T11:52:40;94638.31;;;4.68;65.25
12803;BME280;6465;42.700;23.278;2024-01-16T11:55:25;94637.59;;;4.64;64.73
12803;BME280;6465;42.700;23.278;2024-01-16T11:58:09;94624.25;;;4.75;64.43
12803;BME280;6465;42.700;23.278;2024-01-16T12:00:45;94628.00;;;4.66;63.50
12803;BME280;6465;42.700;23.278;2024-01-16T12:03:14;94640.69;;;4.74;62.79
12803;BME280;6465;42.700;23.278;2024-01-16T12:05:43;94646.94;;;4.44;63.67
12803;BME280;6465;42.700;23.278;2024-01-16T12:08:10;94656.09;;;4.54;63.64
12803;BME280;6465;42.700;23.278;2024-01-16T12:10:46;94662.03;;;4.57;63.04
12803;BME280;6465;42.700;23.278;2024-01-16T12:13:13;94669.22;;;4.49;63.23
12803;BME280;6465;42.700;23.278;2024-01-16T12:15:40;94649.84;;;4.34;63.69
12803;BME280;6465;42.700;23.278;2024-01-16T12:18:08;94637.03;;;4.30;64.24
12803;BME280;6465;42.700;23.278;2024-01-16T12:20:37;94650.72;;;4.33;64.54
12803;BME280;6465;42.700;23.278;2024-01-16T12:23:06;94649.94;;;4.31;63.95
12803;BME280;6465;42.700;23.278;2024-01-16T12:25:34;94659.91;;;4.44;63.53
12803;BME280;6465;42.700;23.278;2024-01-16T12:28:02;94655.66;;;4.41;63.20
12803;BME280;6465;42.700;23.278;2024-01-16T12:30:31;94660.13;;;4.37;63.80
12803;BME280;6465;42.700;23.278;2024-01-16T12:33:05;94647.16;;;4.37;63.94
12803;BME280;6465;42.700;23.278;2024-01-16T12:35:34;94659.16;;;4.40;63.80
12803;BME280;6465;42.700;23.278;2024-01-16T12:38:04;94659.91;;;4.44;63.72
12803;BME280;6465;42.700;23.278;2024-01-16T12:40:32;94668.16;;;4.55;63.54
12803;BME280;6465;42.700;23.278;2024-01-16T12:42:59;94677.91;;;4.73;63.32
12803;BME280;6465;42.700;23.278;2024-01-16T12:45:26;94681.81;;;4.60;63.70
12803;BME280;6465;42.700;23.278;2024-01-16T12:47:54;94665.63;;;4.53;64.08
12803;BME280;6465;42.700;23.278;2024-01-16T12:50:24;94646.88;;;4.45;64.41
12803;BME280;6465;42.700;23.278;2024-01-16T12:53:02;94662.25;;;4.76;64.47
12803;BME280;6465;42.700;23.278;2024-01-16T12:55:30;94662.75;;;4.86;63.73
12803;BME280;6465;42.700;23.278;2024-01-16T12:58:15;94664.72;;;4.79;63.69
12803;BME280;6465;42.700;23.278;2024-01-16T13:00:43;94670.06;;;4.74;64.04
12803;BME280;6465;42.700;23.278;2024-01-16T13:03:20;94674.59;;;4.69;64.11
12803;BME280;6465;42.700;23.278;2024-01-16T13:05:55;94670.47;;;4.64;64.37
12803;BME280;6465;42.700;23.278;2024-01-16T13:08:24;94663.53;;;4.64;64.49
12803;BME280;6465;42.700;23.278;2024-01-16T13:11:04;94679.72;;;4.71;64.63
12803;BME280;6465;42.700;23.278;2024-01-16T13:13:31;94678.31;;;4.61;64.97
12803;BME280;6465;42.700;23.278;2024-01-16T13:15:59;94677.41;;;4.37;63.79
12803;BME280;6465;42.700;23.278;2024-01-16T13:18:28;94686.53;;;4.49;63.34